MSC Bettina — HPFG — position and weather

sailwx.info

Track history (hours):
 
Tides and Currents Weather Stations Pressure Air Temp Water Temp Dewpoint Dewpoint Depression Visibility Wind Speed Wind Dir Waves Ship Positions

MSC Bettina

Last reported at 2015-May-13 09:32 UTC. Time now 2015-May-25 09:24 UTC.
Position N 31°12' E 032°21'.
Warning: this ship's position is 11 days out of date.

Length 366 m; draft 14.3 m.

Type: Ship (hazmat cat A). MMSI: 352361000.

Date/timePositionNaut miles runAvg speedWind from/ knotsBaromVisibWave heightAir tempDewpointWater temp
2015-May-13 09:32N 31°12' E 032°21'335 7.1
2015-May-11 10:32N 34°53' E 027°20'1611.2
2015-May-11 09:06N 35°03' E 027°05'610.4
2015-May-11 08:33N 35°07' E 026°60'2510.4
2015-May-11 06:10N 35°23' E 026°36'810.9
2015-May-11 05:24N 35°28' E 026°28'1310.4
2015-May-11 04:10N 35°35' E 026°15'1910.3
2015-May-11 02:20N 35°44' E 025°54'910.7
2015-May-11 01:31N 35°49' E 025°46'1010.6
2015-May-11 00:33N 35°55' E 025°35'1010.0
2015-May-10 23:32N 35°60' E 025°24'10 9.8
2015-May-10 22:33N 36°05' E 025°14'1010.0
2015-May-10 21:33N 36°10' E 025°03'1010.4
2015-May-10 20:33N 36°15' E 024°52'1110.5
2015-May-10 19:33N 36°21' E 024°41'68 9.6
2015-May-10 12:31N 37°16' E 023°52'1010.7
2015-May-10 11:33N 37°26' E 023°49'1110.7
2015-May-10 10:33N 37°36' E 023°44'1413.8
2015-May-10 09:33N 37°49' E 023°37'8 8.1
2015-May-10 08:32N 37°57' E 023°35'0 0.4
2015-May-10 07:31N 37°57' E 023°35'0 0.0
2015-May-10 06:31N 37°57' E 023°35'0 0.0
2015-May-10 05:31N 37°57' E 023°35'0 0.0
2015-May-10 04:31N 37°57' E 023°35'0 0.0
2015-May-10 03:31N 37°57' E 023°35'0 0.0
2015-May-10 02:31N 37°57' E 023°35'0 0.0
2015-May-10 01:31N 37°57' E 023°35'0 0.0
2015-May-10 00:31N 37°57' E 023°35'0 0.0
2015-May-09 23:31N 37°57' E 023°35'0 0.0
2015-May-09 22:31N 37°57' E 023°35'0 0.0
2015-May-09 21:31N 37°57' E 023°35'0 0.0
2015-May-09 20:31N 37°57' E 023°35'0 0.0
2015-May-09 19:31N 37°57' E 023°35'0 0.0
2015-May-09 18:31N 37°57' E 023°35'0 0.0
2015-May-09 17:31N 37°57' E 023°35'0 0.0
2015-May-09 16:31N 37°57' E 023°35'0 0.0
2015-May-09 15:28N 37°57' E 023°35'0 0.0
2015-May-09 14:28N 37°57' E 023°35'0 0.0
2015-May-09 13:31N 37°57' E 023°35'0 0.0
2015-May-09 12:30N 37°57' E 023°35'0 0.0
2015-May-09 11:33N 37°57' E 023°35'0 0.0
2015-May-09 10:32N 37°57' E 023°35'0 0.0
2015-May-09 09:32N 37°57' E 023°35'0 0.0
2015-May-09 08:32N 37°57' E 023°35'0 0.0
2015-May-09 07:32N 37°57' E 023°35'0 0.0
2015-May-09 06:32N 37°57' E 023°35'0 0.0
2015-May-09 05:33N 37°57' E 023°35'3 2.6
2015-May-09 04:34N 37°55' E 023°35'2 1.9
2015-May-09 03:33N 37°53' E 023°35'4 3.7
2015-May-09 02:34N 37°51' E 023°39'8 7.5
2015-May-09 01:34N 37°44' E 023°44'8 8.2
2015-May-09 00:34N 37°38' E 023°50'9 9.2
2015-May-08 23:34N 37°34' E 024°00'  
Track history (hours):
 
Tides and Currents Weather Stations Pressure Air Temp Water Temp Dewpoint Dewpoint Depression Visibility Wind Speed Wind Dir Waves Ship Positions

MSC Bettina

Last reported at 2015-May-13 09:32 UTC. Time now 2015-May-25 09:24 UTC.
Position N 31°12' E 032°21'.
Warning: this ship's position is 11 days out of date.

Length 366 m; draft 14.3 m.

Type: Ship (hazmat cat A). MMSI: 352361000.

Date/timePositionNaut miles runAvg speedWind from/ knotsBaromVisibWave heightAir tempDewpointWater temp
2015-May-13 09:32N 31°12' E 032°21'335 7.1
2015-May-11 10:32N 34°53' E 027°20'1611.2
2015-May-11 09:06N 35°03' E 027°05'610.4
2015-May-11 08:33N 35°07' E 026°60'2510.4
2015-May-11 06:10N 35°23' E 026°36'810.9
2015-May-11 05:24N 35°28' E 026°28'1310.4
2015-May-11 04:10N 35°35' E 026°15'1910.3
2015-May-11 02:20N 35°44' E 025°54'910.7
2015-May-11 01:31N 35°49' E 025°46'1010.6
2015-May-11 00:33N 35°55' E 025°35'1010.0
2015-May-10 23:32N 35°60' E 025°24'10 9.8
2015-May-10 22:33N 36°05' E 025°14'1010.0
2015-May-10 21:33N 36°10' E 025°03'1010.4
2015-May-10 20:33N 36°15' E 024°52'1110.5
2015-May-10 19:33N 36°21' E 024°41'68 9.6
2015-May-10 12:31N 37°16' E 023°52'1010.7
2015-May-10 11:33N 37°26' E 023°49'1110.7
2015-May-10 10:33N 37°36' E 023°44'1413.8
2015-May-10 09:33N 37°49' E 023°37'8 8.1
2015-May-10 08:32N 37°57' E 023°35'0 0.4
2015-May-10 07:31N 37°57' E 023°35'0 0.0
2015-May-10 06:31N 37°57' E 023°35'0 0.0
2015-May-10 05:31N 37°57' E 023°35'0 0.0
2015-May-10 04:31N 37°57' E 023°35'0 0.0
2015-May-10 03:31N 37°57' E 023°35'0 0.0
2015-May-10 02:31N 37°57' E 023°35'0 0.0
2015-May-10 01:31N 37°57' E 023°35'0 0.0
2015-May-10 00:31N 37°57' E 023°35'0 0.0
2015-May-09 23:31N 37°57' E 023°35'0 0.0
2015-May-09 22:31N 37°57' E 023°35'0 0.0
2015-May-09 21:31N 37°57' E 023°35'0 0.0
2015-May-09 20:31N 37°57' E 023°35'0 0.0
2015-May-09 19:31N 37°57' E 023°35'0 0.0
2015-May-09 18:31N 37°57' E 023°35'0 0.0
2015-May-09 17:31N 37°57' E 023°35'0 0.0
2015-May-09 16:31N 37°57' E 023°35'0 0.0
2015-May-09 15:28N 37°57' E 023°35'0 0.0
2015-May-09 14:28N 37°57' E 023°35'0 0.0
2015-May-09 13:31N 37°57' E 023°35'0 0.0
2015-May-09 12:30N 37°57' E 023°35'0 0.0
2015-May-09 11:33N 37°57' E 023°35'0 0.0
2015-May-09 10:32N 37°57' E 023°35'0 0.0
2015-May-09 09:32N 37°57' E 023°35'0 0.0
2015-May-09 08:32N 37°57' E 023°35'0 0.0
2015-May-09 07:32N 37°57' E 023°35'0 0.0
2015-May-09 06:32N 37°57' E 023°35'0 0.0
2015-May-09 05:33N 37°57' E 023°35'3 2.6
2015-May-09 04:34N 37°55' E 023°35'2 1.9
2015-May-09 03:33N 37°53' E 023°35'4 3.7
2015-May-09 02:34N 37°51' E 023°39'8 7.5
2015-May-09 01:34N 37°44' E 023°44'8 8.2
2015-May-09 00:34N 37°38' E 023°50'9 9.2
2015-May-08 23:34N 37°34' E 024°00'  

Dump ship's entire track history